Time,TemperatureF,DewpointF,PressureIn,WindDirection,WindDirectionDegrees,WindSpeedMPH,WindSpeedGustMPH,Humidity,HourlyPrecipIn,Conditions,Clouds,dailyrainin,SoftwareType,DateUTC
2013-02-12 00:04:00,30.6,21.0,30.03,NNW,330,4.0,9.0,68,0.00,,,0.00,weatherlink.com 1.10,2013-02-12 07:04:00,
2013-02-12 00:19:00,30.5,21.0,30.03,NNW,342,3.0,8.0,69,0.00,,,0.00,weatherlink.com 1.10,2013-02-12 07:19:00,
2013-02-12 00:35:00,30.4,22.0,30.05,NW,324,1.0,8.0,70,0.00,,,0.00,weatherlink.com 1.10,2013-02-12 07:35:00,
2013-02-12 00:50:00,30.4,22.0,30.05,NW,322,2.0,6.0,70,0.00,,,0.00,weatherlink.com 1.10,2013-02-12 07:50:00,
2013-02-12 01:05:00,30.3,22.0,30.06,NNW,333,3.0,8.0,70,0.00,,,0.00,weatherlink.com 1.10,2013-02-12 08:05:00,
2013-02-12 01:20:00,30.4,22.0,30.06,NW,312,1.0,5.0,70,0.00,,,0.00,weatherlink.com 1.10,2013-02-12 08:20:00,
2013-02-12 01:35:00,30.3,21.0,30.07,NW,319,1.0,5.0,68,0.00,,,0.00,weatherlink.com 1.10,2013-02-12 08:35:00,
2013-02-12 01:50:00,29.9,19.0,30.07,NW,316,2.0,7.0,65,0.00,,,0.00,weatherlink.com 1.10,2013-02-12 08:50:00,
2013-02-12 02:05:00,29.6,18.0,30.08,WNW,300,4.0,6.0,63,0.00,,,0.00,weatherlink.com 1.10,2013-02-12 09:05:00,
2013-02-12 02:20:00,29.3,17.0,30.08,WNW,287,2.0,8.0,60,0.00,,,0.00,weatherlink.com 1.10,2013-02-12 09:20:00,
2013-02-12 02:35:00,29.1,15.0,30.08,NW,314,3.0,6.0,57,0.00,,,0.00,weatherlink.com 1.10,2013-02-12 09:35:00,
2013-02-12 02:50:00,28.8,15.0,30.08,NNW,336,2.0,8.0,56,0.00,,,0.00,weatherlink.com 1.10,2013-02-12 09:50:00,
2013-02-12 03:05:00,28.6,15.0,30.09,NNE,15,9.0,12.0,57,0.00,,,0.00,weatherlink.com 1.10,2013-02-12 10:05:00,
2013-02-12 03:20:00,28.2,15.0,30.09,NNW,342,4.0,11.0,57,0.00,,,0.00,weatherlink.com 1.10,2013-02-12 10:20:00,
2013-02-12 03:35:00,27.7,15.0,30.09,NNW,331,2.0,7.0,58,0.00,,,0.00,weatherlink.com 1.10,2013-02-12 10:35:00,
2013-02-12 03:50:00,27.3,15.0,30.09,North,360,7.0,10.0,59,0.00,,,0.00,weatherlink.com 1.10,2013-02-12 10:50:00,
2013-02-12 04:05:00,26.9,15.0,30.10,North,353,1.0,5.0,60,0.00,,,0.00,weatherlink.com 1.10,2013-02-12 11:05:00,
2013-02-12 04:20:00,26.7,14.0,30.11,NNW,345,4.0,9.0,60,0.00,,,0.00,weatherlink.com 1.10,2013-02-12 11:20:00,
2013-02-12 04:35:00,26.5,14.0,30.11,NW,322,2.0,11.0,60,0.00,,,0.00,weatherlink.com 1.10,2013-02-12 11:35:00,
2013-02-12 04:50:00,26.4,14.0,30.12,NNW,345,0.0,6.0,61,0.00,,,0.00,weatherlink.com 1.10,2013-02-12 11:50:00,
2013-02-12 05:05:00,26.0,14.0,30.13,North,359,2.0,6.0,61,0.00,,,0.00,weatherlink.com 1.10,2013-02-12 12:05:00,
2013-02-12 05:20:00,25.7,14.0,30.14,NNE,26,3.0,8.0,62,0.00,,,0.00,weatherlink.com 1.10,2013-02-12 12:20:00,
2013-02-12 05:35:00,25.4,15.0,30.14,North,9,0.0,6.0,64,0.00,,,0.00,weatherlink.com 1.10,2013-02-12 12:35:00,
2013-02-12 05:51:00,25.1,14.0,30.15,NNW,344,2.0,5.0,63,0.00,,,0.00,weatherlink.com 1.10,2013-02-12 12:51:00,
2013-02-12 06:05:00,25.0,14.0,30.16,NNW,345,1.0,8.0,64,0.00,,,0.00,weatherlink.com 1.10,2013-02-12 13:05:00,
2013-02-12 06:20:00,24.7,15.0,30.16,NNE,13,2.0,4.0,66,0.00,,,0.00,weatherlink.com 1.10,2013-02-12 13:20:00,
2013-02-12 06:36:00,24.5,15.0,30.17,NNE,21,2.0,2.0,66,0.00,,,0.00,weatherlink.com 1.10,2013-02-12 13:36:00,
2013-02-12 06:51:00,24.2,15.0,30.18,NNW,347,0.0,4.0,67,0.00,,,0.00,weatherlink.com 1.10,2013-02-12 13:51:00,
2013-02-12 07:06:00,24.2,15.0,30.19,NNW,337,1.0,4.0,67,0.00,,,0.00,weatherlink.com 1.10,2013-02-12 14:06:00,
2013-02-12 07:21:00,24.4,15.0,30.19,NNW,333,2.0,7.0,67,0.00,,,0.00,weatherlink.com 1.10,2013-02-12 14:21:00,
2013-02-12 07:36:00,25.0,15.0,30.19,North,360,6.0,7.0,66,0.00,,,0.00,weatherlink.com 1.10,2013-02-12 14:36:00,
2013-02-12 07:51:00,25.4,15.0,30.20,North,10,1.0,4.0,65,0.00,,,0.00,weatherlink.com 1.10,2013-02-12 14:51:00,
2013-02-12 08:06:00,25.8,15.0,30.21,North,349,1.0,7.0,64,0.00,,,0.00,weatherlink.com 1.10,2013-02-12 15:06:00,
2013-02-12 08:21:00,26.3,15.0,30.22,NNW,331,2.0,8.0,63,0.00,,,0.00,weatherlink.com 1.10,2013-02-12 15:21:00,
2013-02-12 08:36:00,27.1,15.0,30.23,NW,307,2.0,7.0,61,0.00,,,0.00,weatherlink.com 1.10,2013-02-12 15:36:00,
2013-02-12 08:51:00,28.0,15.0,30.23,NNE,20,4.0,7.0,59,0.00,,,0.00,weatherlink.com 1.10,2013-02-12 15:51:00,
2013-02-12 09:06:00,28.7,15.0,30.24,NW,315,3.0,6.0,58,0.00,,,0.00,weatherlink.com 1.10,2013-02-12 16:06:00,
2013-02-12 09:21:00,29.8,15.0,30.24,North,358,1.0,4.0,55,0.00,,,0.00,weatherlink.com 1.10,2013-02-12 16:21:00,
2013-02-12 09:36:00,30.4,15.0,30.25,North,10,3.0,6.0,54,0.00,,,0.00,weatherlink.com 1.10,2013-02-12 16:36:00,
2013-02-12 09:51:00,31.4,15.0,30.25,NW,317,2.0,7.0,52,0.00,,,0.00,weatherlink.com 1.10,2013-02-12 16:51:00,
2013-02-12 10:06:00,32.3,15.0,30.24,North,4,3.0,11.0,49,0.00,,,0.00,weatherlink.com 1.10,2013-02-12 17:06:00,
2013-02-12 10:21:00,32.6,14.0,30.24,NNW,336,5.0,11.0,46,0.00,,,0.00,weatherlink.com 1.10,2013-02-12 17:21:00,
2013-02-12 10:36:00,33.7,15.0,30.24,East,82,2.0,6.0,46,0.00,,,0.00,weatherlink.com 1.10,2013-02-12 17:36:00,
2013-02-12 10:51:00,35.0,14.0,30.24,NNW,328,1.0,5.0,43,0.00,,,0.00,weatherlink.com 1.10,2013-02-12 17:51:00,
2013-02-12 11:07:00,35.9,14.0,30.23,North,355,3.0,6.0,41,0.00,,,0.00,weatherlink.com 1.10,2013-02-12 18:07:00,
2013-02-12 11:21:00,36.8,16.0,30.23,NNE,18,3.0,5.0,42,0.00,,,0.00,weatherlink.com 1.10,2013-02-12 18:21:00,
2013-02-12 11:36:00,37.5,13.0,30.23,NE,46,2.0,11.0,36,0.00,,,0.00,weatherlink.com 1.10,2013-02-12 18:36:00,
2013-02-12 11:51:00,38.3,13.0,30.21,NNW,330,2.0,11.0,35,0.00,,,0.00,weatherlink.com 1.10,2013-02-12 18:51:00,
2013-02-12 12:06:00,38.7,11.0,30.20,North,354,3.0,9.0,32,0.00,,,0.00,weatherlink.com 1.10,2013-02-12 19:06:00,
2013-02-12 12:21:00,39.8,9.0,30.20,NW,324,3.0,6.0,28,0.00,,,0.00,weatherlink.com 1.10,2013-02-12 19:21:00,
2013-02-12 12:37:00,40.6,10.0,30.19,NNW,332,3.0,7.0,28,0.00,,,0.00,weatherlink.com 1.10,2013-02-12 19:37:00,
2013-02-12 12:52:00,40.8,9.0,30.18,North,349,3.0,9.0,27,0.00,,,0.00,weatherlink.com 1.10,2013-02-12 19:52:00,
2013-02-12 13:07:00,41.9,7.0,30.17,NNW,332,4.0,9.0,24,0.00,,,0.00,weatherlink.com 1.10,2013-02-12 20:07:00,
2013-02-12 13:22:00,41.5,9.0,30.17,NW,325,9.0,14.0,26,0.00,,,0.00,weatherlink.com 1.10,2013-02-12 20:22:00,
2013-02-12 13:37:00,41.8,6.0,30.17,NNW,336,3.0,12.0,23,0.00,,,0.00,weatherlink.com 1.10,2013-02-12 20:37:00,
2013-02-12 13:52:00,42.2,6.0,30.16,NW,314,5.0,16.0,22,0.00,,,0.00,weatherlink.com 1.10,2013-02-12 20:52:00,
2013-02-12 14:07:00,42.7,6.0,30.15,NW,314,2.0,13.0,22,0.00,,,0.00,weatherlink.com 1.10,2013-02-12 21:07:00,
2013-02-12 14:22:00,42.4,5.0,30.16,NW,314,6.0,14.0,21,0.00,,,0.00,weatherlink.com 1.10,2013-02-12 21:22:00,
2013-02-12 14:37:00,41.8,8.0,30.16,North,11,2.0,12.0,25,0.00,,,0.00,weatherlink.com 1.10,2013-02-12 21:37:00,
2013-02-12 14:52:00,42.5,6.0,30.16,NW,311,6.0,9.0,22,0.00,,,0.00,weatherlink.com 1.10,2013-02-12 21:52:00,
2013-02-12 15:07:00,42.5,7.0,30.16,NNW,342,10.0,10.0,23,0.00,,,0.00,weatherlink.com 1.10,2013-02-12 22:07:00,
2013-02-12 15:22:00,42.6,9.0,30.16,NNW,328,5.0,10.0,25,0.00,,,0.00,weatherlink.com 1.10,2013-02-12 22:22:00,
2013-02-12 15:37:00,42.5,5.0,30.16,NW,312,3.0,14.0,21,0.00,,,0.00,weatherlink.com 1.10,2013-02-12 22:37:00,
2013-02-12 15:52:00,42.7,7.0,30.17,NNW,328,5.0,13.0,23,0.00,,,0.00,weatherlink.com 1.10,2013-02-12 22:52:00,
2013-02-12 16:07:00,42.5,8.0,30.17,NW,316,2.0,9.0,24,0.00,,,0.00,weatherlink.com 1.10,2013-02-12 23:07:00,
2013-02-12 16:22:00,42.0,7.0,30.17,West,281,3.0,13.0,23,0.00,,,0.00,weatherlink.com 1.10,2013-02-12 23:22:00,
2013-02-12 16:37:00,41.8,5.0,30.18,NE,42,6.0,8.0,22,0.00,,,0.00,weatherlink.com 1.10,2013-02-12 23:37:00,
2013-02-12 16:52:00,41.0,7.0,30.18,NNW,334,3.0,11.0,24,0.00,,,0.00,weatherlink.com 1.10,2013-02-12 23:52:00,
2013-02-12 17:07:00,40.5,6.0,30.18,WNW,292,6.0,10.0,24,0.00,,,0.00,weatherlink.com 1.10,2013-02-13 00:07:00,
2013-02-12 17:22:00,39.7,6.0,30.18,NW,325,3.0,9.0,25,0.00,,,0.00,weatherlink.com 1.10,2013-02-13 00:22:00,
2013-02-12 17:37:00,38.8,6.0,30.20,NW,311,3.0,8.0,26,0.00,,,0.00,weatherlink.com 1.10,2013-02-13 00:37:00,
2013-02-12 17:52:00,38.1,7.0,30.20,NNW,343,2.0,9.0,27,0.00,,,0.00,weatherlink.com 1.10,2013-02-13 00:52:00,
2013-02-12 18:07:00,37.3,8.0,30.20,West,278,3.0,9.0,29,0.00,,,0.00,weatherlink.com 1.10,2013-02-13 01:07:00,
2013-02-12 18:22:00,36.7,8.0,30.21,NNE,16,3.0,9.0,30,0.00,,,0.00,weatherlink.com 1.10,2013-02-13 01:22:00,
2013-02-12 18:37:00,36.1,8.0,30.22,North,354,1.0,5.0,31,0.00,,,0.00,weatherlink.com 1.10,2013-02-13 01:37:00,
2013-02-12 18:52:00,35.5,8.0,30.23,NNE,33,3.0,6.0,32,0.00,,,0.00,weatherlink.com 1.10,2013-02-13 01:52:00,
2013-02-12 19:07:00,34.9,8.0,30.23,NNW,331,3.0,6.0,33,0.00,,,0.00,weatherlink.com 1.10,2013-02-13 02:07:00,
2013-02-12 19:22:00,34.7,9.0,30.24,North,359,6.0,8.0,34,0.00,,,0.00,weatherlink.com 1.10,2013-02-13 02:22:00,
2013-02-12 19:37:00,34.4,9.0,30.25,NNW,331,2.0,7.0,34,0.00,,,0.00,weatherlink.com 1.10,2013-02-13 02:37:00,
2013-02-12 19:52:00,34.1,8.0,30.26,West,266,1.0,6.0,34,0.00,,,0.00,weatherlink.com 1.10,2013-02-13 02:52:00,
2013-02-12 20:07:00,33.6,9.0,30.26,NNW,333,0.0,5.0,35,0.00,,,0.00,weatherlink.com 1.10,2013-02-13 03:07:00,
2013-02-12 20:22:00,33.3,9.0,30.27,NNE,31,6.0,7.0,36,0.00,,,0.00,weatherlink.com 1.10,2013-02-13 03:22:00,
2013-02-12 20:37:00,33.1,9.0,30.27,NW,324,4.0,7.0,37,0.00,,,0.00,weatherlink.com 1.10,2013-02-13 03:37:00,
2013-02-12 20:52:00,33.1,9.0,30.27,NNW,337,1.0,7.0,36,0.00,,,0.00,weatherlink.com 1.10,2013-02-13 03:52:00,
2013-02-12 21:07:00,32.7,10.0,30.28,NW,324,0.0,5.0,38,0.00,,,0.00,weatherlink.com 1.10,2013-02-13 04:07:00,
2013-02-12 21:22:00,32.1,9.0,30.28,North,360,1.0,4.0,38,0.00,,,0.00,weatherlink.com 1.10,2013-02-13 04:22:00,
2013-02-12 21:37:00,31.3,9.0,30.28,North,355,1.0,2.0,39,0.00,,,0.00,weatherlink.com 1.10,2013-02-13 04:37:00,
2013-02-12 21:52:00,31.0,9.0,30.29,North,354,1.0,3.0,40,0.00,,,0.00,weatherlink.com 1.10,2013-02-13 04:52:00,
2013-02-12 22:07:00,31.3,10.0,30.29,North,360,1.0,5.0,41,0.00,,,0.00,weatherlink.com 1.10,2013-02-13 05:07:00,
2013-02-12 22:23:00,30.9,10.0,30.29,NNW,340,0.0,4.0,42,0.00,,,0.00,weatherlink.com 1.10,2013-02-13 05:23:00,
2013-02-12 22:37:00,30.7,10.0,30.28,NNW,344,1.0,5.0,42,0.00,,,0.00,weatherlink.com 1.10,2013-02-13 05:37:00,
2013-02-12 22:53:00,30.4,10.0,30.29,NNE,21,0.0,2.0,43,0.00,,,0.00,weatherlink.com 1.10,2013-02-13 05:53:00,
2013-02-12 23:07:00,29.5,10.0,30.29,NNE,20,0.0,1.0,44,0.00,,,0.00,weatherlink.com 1.10,2013-02-13 06:07:00,
2013-02-12 23:22:00,28.3,10.0,30.29,North,356,2.0,2.0,46,0.00,,,0.00,weatherlink.com 1.10,2013-02-13 06:22:00,
2013-02-12 23:37:00,28.8,10.0,30.28,North,349,0.0,1.0,45,0.00,,,0.00,weatherlink.com 1.10,2013-02-13 06:37:00,
2013-02-12 23:52:00,28.2,10.0,30.28,NNW,332,2.0,2.0,47,0.00,,,0.00,weatherlink.com 1.10,2013-02-13 06:52:00,